Portada
METAR-TAF:

METAR-TAF

Aeroports :

Al-Kuwait, Kuwait

latitud: 29-13N, longitud: 047-59E, altitud: 55 m

Observació

L'informe es va fer fa 12 minuts, a les 21:00 UTC
Vent 7 kt del Oest/Nord-Oest
Temperatura 35°C
Humitat 17%
Pressió 998 hPa
Visibilitat 10 km o més
sense núvols per sota de 1500 mi sense presència de cumulonimbus.

METAR: OKBK 142100Z 30007KT CAVOK 35/06 Q0998 NOSIG

Hora: 00:12 (21:12 UTC)

Pronòstic

L'informe es va fer fa 4 hores i 27 minuts, a les 16:45 UTC
Pronòstic vàlid del 14 a les 18 UTC al 15 a les 24 UTC
Vent 12 kt del Nord/Nord-Oest
Visibilitat: 7000 m
Cel clar

TAF: OKBK 141645Z 1418/1524 33012KT 7000 SKC

Observacions i pronòstics meteorològics de més de 4000 aeroports (METAR i TAF).

Les estacions disponibles són els punts grocs i vermells al mapa.

Posi el ratolí al punt desitjat per veure el nom de l'estació.

Feu clic per veure les observacions i els pronòstics meteorològics.

Per canviar el mapa: feu clic els botons verds amb una creu de color negre per apropar; al botó verd amb un guió per allunyar la imatge; o en les fletxes verdes per a mapes adjacents.


METAR-TAF: